Time;durP1;ratioP1;P1;durP2;ratioP2;P2;SDS_P1;SDS_P2;PMS_P1;PMS_P2;Temp;Humidity;BMP_temperature;BMP_pressure;BME280_temperature;BME280_humidity;BME280_pressure;Samples;Min_cycle;Max_cycle;Signal;HPM_P1;HPM_P2
2023/01/16 00:01:14;;;;;;;11.67;9.10;;;;;;;;;;5059970;28;20209;-79
2023/01/16 00:03:41;;;;;;;10.60;8.83;;;;;;;;;;5053665;28;20256;-79
2023/01/16 00:06:08;;;;;;;11.80;8.03;;;;;;;;;;5067674;28;20212;-79
2023/01/16 00:08:35;;;;;;;12.23;9.07;;;;;;;;;;5074315;28;20647;-80
2023/01/16 00:11:03;;;;;;;10.87;8.60;;;;;;;;;;5073232;28;20704;-79
2023/01/16 00:13:30;;;;;;;11.10;8.37;;;;;;;;;;5073762;28;20208;-80
2023/01/16 00:15:56;;;;;;;12.70;9.67;;;;;;;;;;5072833;28;20212;-79
2023/01/16 00:18:23;;;;;;;14.53;9.60;;;;;;;;;;5065182;28;20256;-80
2023/01/16 00:20:50;;;;;;;12.67;9.77;;;;;;;;;;5067055;28;20209;-79
2023/01/16 00:23:17;;;;;;;14.83;10.00;;;;;;;;;;5053663;28;20240;-79
2023/01/16 00:25:44;;;;;;;14.30;10.00;;;;;;;;;;5068974;28;20216;-79
2023/01/16 00:28:14;;;;;;;14.13;9.77;;;;;;;;;;5064240;28;20256;-79
2023/01/16 00:30:40;;;;;;;13.50;9.27;;;;;;;;;;5066550;28;20230;-79
2023/01/16 00:33:07;;;;;;;12.87;9.47;;;;;;;;;;5063399;28;20205;-79
2023/01/16 00:35:34;;;;;;;11.67;8.80;;;;;;;;;;5059179;28;20205;-79
2023/01/16 00:38:01;;;;;;;13.00;8.60;;;;;;;;;;5063337;28;20739;-79
2023/01/16 00:40:28;;;;;;;11.63;8.47;;;;;;;;;;5066143;28;20226;-79
2023/01/16 00:42:55;;;;;;;10.50;7.20;;;;;;;;;;5063265;28;20204;-81
2023/01/16 00:45:23;;;;;;;12.27;8.13;;;;;;;;;;5055925;28;20205;-79
2023/01/16 00:47:50;;;;;;;8.33;6.67;;;;;;;;;;5053427;28;20206;-79
2023/01/16 00:50:17;;;;;;;8.33;6.67;;;;;;;;;;5057108;28;20201;-79
2023/01/16 00:52:44;;;;;;;9.10;6.20;;;;;;;;;;5073259;28;20276;-79
2023/01/16 00:55:11;;;;;;;7.40;5.70;;;;;;;;;;5072377;28;20198;-80
2023/01/16 00:57:38;;;;;;;8.50;6.87;;;;;;;;;;5072823;28;20302;-79
2023/01/16 01:00:06;;;;;;;5.67;4.93;;;;;;;;;;5072498;28;20738;-79
2023/01/16 01:02:34;;;;;;;7.37;6.43;;;;;;;;;;5072894;28;20205;-79
2023/01/16 01:05:01;;;;;;;12.20;6.30;;;;;;;;;;5053366;28;20202;-79
2023/01/16 01:07:27;;;;;;;10.50;6.13;;;;;;;;;;5052759;28;20206;-79
2023/01/16 01:09:54;;;;;;;7.33;5.77;;;;;;;;;;5065902;28;20201;-80
2023/01/16 01:12:21;;;;;;;6.73;5.70;;;;;;;;;;5053024;28;20278;-79
2023/01/16 01:14:48;;;;;;;7.13;5.57;;;;;;;;;;5065332;28;20263;-79
2023/01/16 01:17:14;;;;;;;6.90;5.87;;;;;;;;;;5052920;28;20275;-79
2023/01/16 01:19:43;;;;;;;7.20;6.40;;;;;;;;;;5052368;28;20774;-79
2023/01/16 01:22:09;;;;;;;6.00;5.30;;;;;;;;;;5052208;28;20198;-79
2023/01/16 01:24:36;;;;;;;6.40;5.00;;;;;;;;;;5052176;28;20216;-79
2023/01/16 01:27:03;;;;;;;6.90;5.30;;;;;;;;;;5066564;28;20246;-79
2023/01/16 01:29:30;;;;;;;6.50;5.20;;;;;;;;;;5071981;28;20734;-79
2023/01/16 01:31:56;;;;;;;6.30;4.87;;;;;;;;;;5071551;28;20268;-80
2023/01/16 01:34:23;;;;;;;5.37;4.87;;;;;;;;;;5070715;28;20262;-80
2023/01/16 01:36:51;;;;;;;5.70;4.83;;;;;;;;;;5058760;28;20206;-80
2023/01/16 01:39:18;;;;;;;6.93;4.97;;;;;;;;;;5038814;28;20290;-79
2023/01/16 01:41:45;;;;;;;6.63;5.60;;;;;;;;;;5051881;28;20202;-80
2023/01/16 01:44:48;;;;;;;6.37;5.77;;;;;;;;;;5072207;28;20208;-79
2023/01/16 01:47:15;;;;;;;4.83;4.33;;;;;;;;;;5071609;28;20247;-79
2023/01/16 01:49:42;;;;;;;5.43;4.93;;;;;;;;;;5071608;28;20205;-79
2023/01/16 01:52:11;;;;;;;6.67;4.50;;;;;;;;;;5058004;28;20205;-79
2023/01/16 01:54:43;;;;;;;6.60;5.70;;;;;;;;;;5071407;28;20205;-80
2023/01/16 01:57:12;;;;;;;6.93;5.67;;;;;;;;;;5071286;28;20248;-79
2023/01/16 01:59:42;;;;;;;6.30;5.70;;;;;;;;;;5070539;28;20235;-80
2023/01/16 02:02:12;;;;;;;7.07;5.47;;;;;;;;;;5051476;28;20208;-80
2023/01/16 02:04:43;;;;;;;6.23;5.63;;;;;;;;;;5053669;28;20202;-79
2023/01/16 02:07:14;;;;;;;8.73;5.87;;;;;;;;;;5071086;28;20583;-79
2023/01/16 02:09:41;;;;;;;6.07;5.47;;;;;;;;;;5057548;28;20215;-79
2023/01/16 02:12:10;;;;;;;7.67;5.90;;;;;;;;;;5071312;28;20209;-79
2023/01/16 02:14:39;;;;;;;6.13;5.20;;;;;;;;;;5066990;28;20194;-79
2023/01/16 02:19:57;;;;;;;6.43;5.83;;;;;;;;;;5046312;28;20937;-79
2023/01/16 02:22:54;;;;;;;7.13;5.90;;;;;;;;;;5070542;28;20201;-79
2023/01/16 02:25:48;;;;;;;16.67;6.63;;;;;;;;;;5030469;28;20205;-79
2023/01/16 02:28:43;;;;;;;6.57;5.40;;;;;;;;;;5050793;28;20197;-79
2023/01/16 02:31:18;;;;;;;8.27;6.37;;;;;;;;;;5015930;28;20214;-80
2023/01/16 02:33:58;;;;;;;8.37;6.70;;;;;;;;;;5052191;28;20201;-79
2023/01/16 02:36:31;;;;;;;7.43;6.17;;;;;;;;;;5071153;28;20204;-79
2023/01/16 02:39:05;;;;;;;6.97;6.13;;;;;;;;;;5057598;28;20243;-79
2023/01/16 02:41:41;;;;;;;7.67;6.67;;;;;;;;;;5058606;28;20213;-79
2023/01/16 02:44:16;;;;;;;7.70;6.33;;;;;;;;;;5064366;28;20210;-79
2023/01/16 02:46:47;;;;;;;8.60;7.00;;;;;;;;;;5051730;28;20205;-79
2023/01/16 02:49:20;;;;;;;8.30;6.47;;;;;;;;;;5071022;28;20201;-79
2023/01/16 02:51:52;;;;;;;9.00;7.10;;;;;;;;;;5054076;28;20746;-79
2023/01/16 02:54:24;;;;;;;13.67;7.83;;;;;;;;;;5051349;28;20206;-80
2023/01/16 02:56:55;;;;;;;9.67;7.17;;;;;;;;;;5064208;28;20217;-79
2023/01/16 02:59:23;;;;;;;9.23;7.57;;;;;;;;;;5063206;28;20208;-79
2023/01/16 03:01:51;;;;;;;10.13;7.70;;;;;;;;;;5051310;28;20213;-78
2023/01/16 03:04:47;;;;;;;7.90;6.83;;;;;;;;;;5051010;28;20193;-78
2023/01/16 03:07:47;;;;;;;8.77;6.70;;;;;;;;;;5052107;28;20258;-78
2023/01/16 03:10:33;;;;;;;6.70;5.97;;;;;;;;;;5039142;28;20210;-78
2023/01/16 03:13:12;;;;;;;7.50;6.80;;;;;;;;;;5055010;28;20200;-79
2023/01/16 03:15:47;;;;;;;7.07;6.07;;;;;;;;;;5070495;28;20207;-79
2023/01/16 03:18:24;;;;;;;8.10;7.30;;;;;;;;;;5063053;28;20212;-79
2023/01/16 03:20:56;;;;;;;7.17;6.43;;;;;;;;;;5067386;28;20744;-79
2023/01/16 03:23:28;;;;;;;11.23;8.63;;;;;;;;;;5054989;28;20267;-78
2023/01/16 03:25:57;;;;;;;10.07;7.30;;;;;;;;;;5071388;28;20258;-79
2023/01/16 03:28:32;;;;;;;10.13;7.60;;;;;;;;;;5074146;28;20234;-79
2023/01/16 03:31:05;;;;;;;7.53;6.70;;;;;;;;;;5061076;28;20208;-79
2023/01/16 03:33:42;;;;;;;8.93;7.90;;;;;;;;;;5074636;28;20208;-79
2023/01/16 03:36:14;;;;;;;9.73;8.07;;;;;;;;;;5041899;28;20717;-79
2023/01/16 03:38:44;;;;;;;11.40;9.07;;;;;;;;;;5055897;28;20198;-79
2023/01/16 03:41:14;;;;;;;10.77;8.73;;;;;;;;;;5074152;28;20217;-79
2023/01/16 03:43:43;;;;;;;9.50;7.73;;;;;;;;;;5074570;28;20213;-79
2023/01/16 03:46:13;;;;;;;9.27;8.27;;;;;;;;;;5064034;28;20202;-79
2023/01/16 03:48:46;;;;;;;9.90;8.40;;;;;;;;;;5071428;28;20205;-79
2023/01/16 03:51:16;;;;;;;8.27;7.37;;;;;;;;;;5073755;28;20617;-79
2023/01/16 03:53:47;;;;;;;10.00;8.00;;;;;;;;;;5068726;28;20688;-79
2023/01/16 03:56:18;;;;;;;9.67;7.73;;;;;;;;;;5054436;28;20206;-77
2023/01/16 03:58:47;;;;;;;10.40;7.77;;;;;;;;;;5052234;28;20225;-77
2023/01/16 04:01:21;;;;;;;9.50;8.03;;;;;;;;;;5062654;28;20312;-77
2023/01/16 04:03:54;;;;;;;10.00;8.27;;;;;;;;;;5073349;28;20745;-80
2023/01/16 04:06:26;;;;;;;9.23;8.23;;;;;;;;;;5062374;28;20205;-82
2023/01/16 04:08:54;;;;;;;8.70;7.73;;;;;;;;;;5067513;28;20201;-82
2023/01/16 04:11:21;;;;;;;9.07;8.13;;;;;;;;;;5054055;28;20213;-81
2023/01/16 04:13:50;;;;;;;9.43;8.43;;;;;;;;;;5060553;28;20580;-82
2023/01/16 04:16:23;;;;;;;10.90;8.50;;;;;;;;;;5060365;28;20696;-82
2023/01/16 04:18:54;;;;;;;8.93;8.03;;;;;;;;;;5066654;28;20213;-82
2023/01/16 04:21:26;;;;;;;8.73;7.50;;;;;;;;;;5053889;28;20643;-83
2023/01/16 04:23:53;;;;;;;10.03;9.03;;;;;;;;;;5053724;28;20205;-84
2023/01/16 04:26:20;;;;;;;9.03;8.03;;;;;;;;;;5067207;28;20222;-83
2023/01/16 04:28:52;;;;;;;9.40;8.43;;;;;;;;;;5063772;28;20217;-83
2023/01/16 04:31:19;;;;;;;9.10;7.50;;;;;;;;;;5048070;28;20211;-83
2023/01/16 04:33:46;;;;;;;9.33;7.80;;;;;;;;;;5044854;28;20206;-83
2023/01/16 04:36:16;;;;;;;8.37;7.13;;;;;;;;;;5065636;28;20202;-84
2023/01/16 04:38:43;;;;;;;7.43;6.73;;;;;;;;;;5053502;28;20259;-83
2023/01/16 04:41:10;;;;;;;7.97;7.17;;;;;;;;;;5052292;28;20294;-83
2023/01/16 04:43:37;;;;;;;10.13;8.03;;;;;;;;;;5067848;28;20565;-83
2023/01/16 04:46:04;;;;;;;15.60;11.27;;;;;;;;;;5062885;28;20672;-83
2023/01/16 04:48:31;;;;;;;11.70;8.83;;;;;;;;;;5042473;28;20225;-83
2023/01/16 04:50:58;;;;;;;10.73;8.67;;;;;;;;;;5051963;28;20271;-84
2023/01/16 04:53:27;;;;;;;77.43;48.80;;;;;;;;;;5064968;28;20209;-83
2023/01/16 04:55:54;;;;;;;31.10;23.50;;;;;;;;;;5065301;28;20266;-83
2023/01/16 04:58:21;;;;;;;57.43;37.33;;;;;;;;;;5060613;28;20233;-83
2023/01/16 05:00:49;;;;;;;19.23;13.37;;;;;;;;;;5054173;28;20293;-82
2023/01/16 05:03:15;;;;;;;39.63;27.87;;;;;;;;;;5053250;28;20201;-83
2023/01/16 05:05:43;;;;;;;18.10;13.03;;;;;;;;;;5061648;28;20205;-84
2023/01/16 05:08:19;;;;;;;37.60;24.47;;;;;;;;;;5064399;28;20217;-84
2023/01/16 05:10:47;;;;;;;48.17;32.60;;;;;;;;;;5051438;28;20292;-84
2023/01/16 05:13:14;;;;;;;28.87;21.37;;;;;;;;;;5063270;28;20209;-83
2023/01/16 05:15:43;;;;;;;48.80;33.13;;;;;;;;;;5068602;28;20218;-83
2023/01/16 05:18:11;;;;;;;22.60;17.00;;;;;;;;;;5052664;28;20657;-83
2023/01/16 05:20:38;;;;;;;9.03;7.73;;;;;;;;;;5069888;28;20236;-83
2023/01/16 05:23:07;;;;;;;11.30;7.37;;;;;;;;;;5072861;28;20197;-83
2023/01/16 05:25:34;;;;;;;12.57;9.10;;;;;;;;;;5068357;28;20284;-83
2023/01/16 05:28:02;;;;;;;22.57;17.90;;;;;;;;;;5063590;28;20205;-83
2023/01/16 05:30:29;;;;;;;14.67;10.80;;;;;;;;;;5067313;28;20210;-83
2023/01/16 05:32:56;;;;;;;19.97;16.60;;;;;;;;;;5051621;28;20301;-83
2023/01/16 05:35:24;;;;;;;39.17;29.30;;;;;;;;;;5057794;28;20218;-83
2023/01/16 05:37:51;;;;;;;69.00;47.03;;;;;;;;;;5063958;28;20263;-83
2023/01/16 05:40:18;;;;;;;49.93;36.37;;;;;;;;;;5053449;28;20206;-84
2023/01/16 05:42:46;;;;;;;53.40;40.77;;;;;;;;;;5062253;28;20681;-83
2023/01/16 05:45:14;;;;;;;16.97;13.83;;;;;;;;;;5068156;28;20201;-84
2023/01/16 05:47:41;;;;;;;13.10;9.07;;;;;;;;;;5072304;28;20262;-83
2023/01/16 05:50:09;;;;;;;33.17;24.90;;;;;;;;;;5072210;28;20209;-83
2023/01/16 05:52:36;;;;;;;18.97;15.57;;;;;;;;;;5062515;28;20279;-86
2023/01/16 05:55:03;;;;;;;13.07;10.77;;;;;;;;;;5052163;28;20202;-83
2023/01/16 05:57:30;;;;;;;10.00;8.97;;;;;;;;;;5051632;28;20237;-83
2023/01/16 05:59:57;;;;;;;10.87;8.63;;;;;;;;;;5052175;28;20296;-83
2023/01/16 06:02:25;;;;;;;9.37;7.67;;;;;;;;;;5062478;28;20228;-83
2023/01/16 06:04:52;;;;;;;9.77;8.07;;;;;;;;;;5071729;28;20201;-84
2023/01/16 06:07:19;;;;;;;10.63;8.47;;;;;;;;;;5060682;28;20666;-83
2023/01/16 06:09:47;;;;;;;11.47;9.30;;;;;;;;;;5056307;28;20208;-84
2023/01/16 06:12:15;;;;;;;19.50;15.20;;;;;;;;;;5060387;28;20210;-83
2023/01/16 06:14:42;;;;;;;14.70;12.00;;;;;;;;;;5070647;28;20335;-83
2023/01/16 06:17:09;;;;;;;16.50;11.37;;;;;;;;;;5071497;28;20680;-84
2023/01/16 06:19:37;;;;;;;17.40;13.07;;;;;;;;;;5052539;28;20259;-83
2023/01/16 06:22:04;;;;;;;18.03;14.57;;;;;;;;;;5064405;28;20225;-83
2023/01/16 06:24:30;;;;;;;17.07;14.33;;;;;;;;;;5071333;28;20201;-83
2023/01/16 06:26:57;;;;;;;16.70;14.33;;;;;;;;;;5071750;28;20698;-83
2023/01/16 06:29:24;;;;;;;23.97;21.23;;;;;;;;;;5058033;28;20212;-84
2023/01/16 06:31:51;;;;;;;26.07;22.03;;;;;;;;;;5071432;28;20262;-83
2023/01/16 06:34:18;;;;;;;31.30;24.53;;;;;;;;;;5052680;28;20209;-84
2023/01/16 06:36:48;;;;;;;19.30;17.17;;;;;;;;;;5051487;28;20275;-83
2023/01/16 06:39:15;;;;;;;23.67;20.20;;;;;;;;;;5064931;28;20205;-83
2023/01/16 06:41:42;;;;;;;23.40;19.30;;;;;;;;;;5051555;28;20291;-84
2023/01/16 06:44:09;;;;;;;50.90;41.07;;;;;;;;;;5071140;28;20208;-85
2023/01/16 06:46:36;;;;;;;34.53;27.97;;;;;;;;;;5058171;28;20726;-83
2023/01/16 06:49:03;;;;;;;41.43;30.30;;;;;;;;;;5071128;28;20201;-83
2023/01/16 06:51:30;;;;;;;41.67;30.73;;;;;;;;;;5057687;28;20689;-83
2023/01/16 06:53:58;;;;;;;24.97;16.93;;;;;;;;;;5062787;28;20206;-84
2023/01/16 06:56:25;;;;;;;54.53;30.80;;;;;;;;;;5053387;28;20598;-83
2023/01/16 06:58:52;;;;;;;220.17;112.00;;;;;;;;;;5062574;28;20237;-84
2023/01/16 07:01:18;;;;;;;123.23;61.80;;;;;;;;;;5052892;28;20233;-83
2023/01/16 07:03:45;;;;;;;33.53;21.90;;;;;;;;;;5071230;28;20239;-84
2023/01/16 07:06:13;;;;;;;23.80;19.87;;;;;;;;;;5068220;28;20205;-84
2023/01/16 07:08:40;;;;;;;56.57;38.63;;;;;;;;;;5060878;28;20228;-88
2023/01/16 07:11:08;;;;;;;23.40;16.50;;;;;;;;;;5057502;28;20758;-83
2023/01/16 07:13:35;;;;;;;50.77;33.37;;;;;;;;;;5060962;28;20293;-83
2023/01/16 07:24:18;;;;;;;10.73;9.30;;;;;;;;;;5036665;28;20220;-85
2023/01/16 07:26:49;;;;;;;15.30;12.43;;;;;;;;;;5071320;28;20205;-84
2023/01/16 07:29:16;;;;;;;20.03;16.40;;;;;;;;;;5051978;28;20633;-84
2023/01/16 07:31:44;;;;;;;18.83;13.67;;;;;;;;;;5050939;28;20210;-83
2023/01/16 07:34:10;;;;;;;11.83;9.30;;;;;;;;;;5064181;28;20205;-83
2023/01/16 07:36:37;;;;;;;20.23;15.83;;;;;;;;;;5062511;28;20699;-83
2023/01/16 07:39:04;;;;;;;19.97;15.23;;;;;;;;;;5065822;28;20684;-83
2023/01/16 07:41:31;;;;;;;22.17;16.13;;;;;;;;;;5062560;28;20306;-83
2023/01/16 07:43:59;;;;;;;50.43;33.87;;;;;;;;;;5057616;28;20213;-83
2023/01/16 07:46:26;;;;;;;43.73;28.87;;;;;;;;;;5070207;28;20212;-83
2023/01/16 07:48:55;;;;;;;21.43;16.30;;;;;;;;;;5057392;28;20572;-83
2023/01/16 07:51:21;;;;;;;11.43;9.63;;;;;;;;;;5070597;28;20229;-83
2023/01/16 07:53:48;;;;;;;13.63;10.33;;;;;;;;;;5050944;28;20217;-84
2023/01/16 07:56:15;;;;;;;15.67;10.47;;;;;;;;;;5063722;28;20228;-84
2023/01/16 07:58:42;;;;;;;8.70;7.63;;;;;;;;;;5051488;28;20226;-83
2023/01/16 08:01:11;;;;;;;10.37;8.73;;;;;;;;;;5064353;28;20286;-83
2023/01/16 08:03:38;;;;;;;17.70;12.13;;;;;;;;;;5063412;28;20202;-83
2023/01/16 08:06:06;;;;;;;28.67;17.93;;;;;;;;;;5052549;28;20227;-83
2023/01/16 08:08:33;;;;;;;14.83;11.33;;;;;;;;;;5054227;28;20202;-83
2023/01/16 08:11:34;;;;;;;10.70;9.60;;;;;;;;;;5067343;28;20197;-83
2023/01/16 08:13:48;;;;;;;14.50;10.30;;;;;;;;;;5053831;28;20292;-84
2023/01/16 08:16:16;;;;;;;11.57;9.43;;;;;;;;;;5071453;28;20208;-84
2023/01/16 08:18:43;;;;;;;16.57;12.47;;;;;;;;;;5074275;28;20642;-85
2023/01/16 08:21:10;;;;;;;21.37;18.27;;;;;;;;;;5061161;28;20209;-83
2023/01/16 08:23:38;;;;;;;18.17;13.67;;;;;;;;;;5061918;28;20202;-83
2023/01/16 08:26:05;;;;;;;14.10;10.53;;;;;;;;;;5059467;28;20212;-83
2023/01/16 08:28:32;;;;;;;22.13;16.43;;;;;;;;;;5061413;28;20696;-83
2023/01/16 08:31:07;;;;;;;22.63;17.73;;;;;;;;;;5066830;28;20641;-84
2023/01/16 08:33:35;;;;;;;26.17;17.57;;;;;;;;;;5054008;28;20205;-84
2023/01/16 08:36:03;;;;;;;17.27;14.43;;;;;;;;;;5060848;28;20205;-82
2023/01/16 08:38:32;;;;;;;17.63;14.40;;;;;;;;;;5059903;28;20297;-84
2023/01/16 08:40:59;;;;;;;28.70;18.87;;;;;;;;;;5073387;28;20247;-83
2023/01/16 08:51:47;;;;;;;31.07;17.50;;;;;;;;;;5070106;28;20600;-83
2023/01/16 08:54:14;;;;;;;39.97;25.37;;;;;;;;;;5053159;28;20692;-83
2023/01/16 08:56:42;;;;;;;39.83;21.70;;;;;;;;;;5070203;28;20251;-83
2023/01/16 08:59:09;;;;;;;24.67;16.47;;;;;;;;;;5063130;28;20226;-83
2023/01/16 09:01:36;;;;;;;11.40;9.70;;;;;;;;;;5057517;28;20283;-83
2023/01/16 09:04:04;;;;;;;13.90;11.43;;;;;;;;;;5073183;28;20747;-82
2023/01/16 09:06:31;;;;;;;12.10;9.13;;;;;;;;;;5055203;28;20194;-83
2023/01/16 09:08:57;;;;;;;12.97;9.20;;;;;;;;;;5064217;28;20212;-83
2023/01/16 09:14:09;;;;;;;11.63;9.30;;;;;;;;;;5052783;28;20212;-84
2023/01/16 09:16:35;;;;;;;10.93;8.53;;;;;;;;;;5052532;28;20209;-83
2023/01/16 09:19:04;;;;;;;9.17;7.47;;;;;;;;;;5053037;28;20202;-84
2023/01/16 09:21:30;;;;;;;16.80;10.97;;;;;;;;;;5052807;28;20263;-83
2023/01/16 09:23:57;;;;;;;10.33;8.80;;;;;;;;;;5066790;28;20201;-83
2023/01/16 09:26:24;;;;;;;12.77;8.83;;;;;;;;;;5072459;28;20258;-83
2023/01/16 09:28:51;;;;;;;7.30;6.43;;;;;;;;;;5071166;28;20205;-84
2023/01/16 09:31:19;;;;;;;8.83;7.57;;;;;;;;;;5052690;28;20205;-84
2023/01/16 09:33:47;;;;;;;18.87;12.77;;;;;;;;;;5067148;28;20292;-83
2023/01/16 09:36:15;;;;;;;26.97;17.20;;;;;;;;;;5072622;28;20644;-83
2023/01/16 09:38:42;;;;;;;90.20;46.57;;;;;;;;;;5057066;28;20259;-83
2023/01/16 09:41:12;;;;;;;74.50;40.70;;;;;;;;;;5052450;28;20213;-83
2023/01/16 09:43:42;;;;;;;36.07;23.00;;;;;;;;;;5052370;28;20241;-83
2023/01/16 09:46:15;;;;;;;39.77;28.10;;;;;;;;;;5052043;28;20681;-83
2023/01/16 09:48:48;;;;;;;21.30;16.50;;;;;;;;;;5065585;28;20210;-83
2023/01/16 09:51:19;;;;;;;14.47;10.40;;;;;;;;;;5052232;28;20206;-83
2023/01/16 09:59:28;;;;;;;17.10;13.33;;;;;;;;;;5026651;28;20252;-83
2023/01/16 10:02:03;;;;;;;27.93;19.27;;;;;;;;;;5038887;28;20221;-83
2023/01/16 10:04:31;;;;;;;13.30;9.53;;;;;;;;;;5053668;28;20201;-83
2023/01/16 10:07:19;;;;;;;12.70;9.70;;;;;;;;;;5071728;28;20690;-83
2023/01/16 10:09:52;;;;;;;12.17;9.83;;;;;;;;;;5054197;28;20217;-83
2023/01/16 10:12:19;;;;;;;11.53;10.07;;;;;;;;;;5052298;28;20212;-83
2023/01/16 10:14:53;;;;;;;17.17;11.73;;;;;;;;;;5057640;28;20212;-84
2023/01/16 10:17:25;;;;;;;13.50;11.30;;;;;;;;;;5071710;28;20263;-85
2023/01/16 10:20:18;;;;;;;14.67;10.67;;;;;;;;;;5047237;28;20644;-81
2023/01/16 10:22:55;;;;;;;11.17;9.60;;;;;;;;;;5071476;28;20235;-82
2023/01/16 10:25:28;;;;;;;13.33;10.37;;;;;;;;;;5058316;28;20201;-83
2023/01/16 10:28:07;;;;;;;15.13;10.33;;;;;;;;;;5051393;28;20206;-82
2023/01/16 10:30:38;;;;;;;12.57;9.73;;;;;;;;;;5053969;28;20251;-83
2023/01/16 10:33:08;;;;;;;14.17;10.30;;;;;;;;;;5062142;28;20193;-83
2023/01/16 10:35:38;;;;;;;12.13;9.47;;;;;;;;;;5067674;28;20223;-83
2023/01/16 10:38:20;;;;;;;13.90;9.27;;;;;;;;;;5061036;28;20666;-81
2023/01/16 10:40:48;;;;;;;12.43;9.70;;;;;;;;;;5065576;28;20206;-80
2023/01/16 10:51:47;;;;;;;10.53;9.40;;;;;;;;;;5029336;28;20217;-81
2023/01/16 10:54:16;;;;;;;11.53;9.00;;;;;;;;;;5059758;28;20212;-81
2023/01/16 10:56:43;;;;;;;10.47;8.27;;;;;;;;;;5053704;28;20217;-81
2023/01/16 10:59:14;;;;;;;8.93;7.13;;;;;;;;;;5051552;28;20252;-81
2023/01/16 11:01:42;;;;;;;11.63;7.90;;;;;;;;;;5051473;28;20213;-80
2023/01/16 11:04:11;;;;;;;8.83;7.93;;;;;;;;;;5063904;28;20629;-81
2023/01/16 11:06:41;;;;;;;11.40;8.97;;;;;;;;;;5051476;28;20198;-81
2023/01/16 11:09:19;;;;;;;9.77;8.27;;;;;;;;;;5051392;28;20630;-84
2023/01/16 11:20:15;;;;;;;10.27;8.63;;;;;;;;;;5059549;28;20596;-81
2023/01/16 11:22:42;;;;;;;18.27;11.67;;;;;;;;;;5050899;28;20221;-82
2023/01/16 11:25:20;;;;;;;8.60;7.70;;;;;;;;;;5050868;28;20208;-81
2023/01/16 11:27:47;;;;;;;9.77;7.77;;;;;;;;;;5051212;28;20210;-81
2023/01/16 11:30:18;;;;;;;8.20;7.43;;;;;;;;;;5051362;28;20656;-82
2023/01/16 11:32:48;;;;;;;9.23;6.97;;;;;;;;;;5063352;28;20206;-80
2023/01/16 11:35:16;;;;;;;10.73;8.17;;;;;;;;;;5064286;28;20239;-82
2023/01/16 11:37:44;;;;;;;14.97;12.27;;;;;;;;;;5058489;28;20212;-81
2023/01/16 11:40:19;;;;;;;11.63;10.00;;;;;;;;;;5071199;28;20688;-81
2023/01/16 11:48:27;;;;;;;9.70;8.00;;;;;;;;;;5070325;28;20216;-82
2023/01/16 11:50:56;;;;;;;11.23;8.87;;;;;;;;;;5075051;28;20201;-81
2023/01/16 11:53:23;;;;;;;10.60;9.47;;;;;;;;;;5071846;28;20221;-81
2023/01/16 11:56:06;;;;;;;18.83;15.17;;;;;;;;;;5064477;28;20281;-81
2023/01/16 11:58:36;;;;;;;22.80;16.93;;;;;;;;;;5055533;28;20700;-81
2023/01/16 12:01:08;;;;;;;16.27;11.57;;;;;;;;;;5067320;28;20212;-82
2023/01/16 12:04:00;;;;;;;12.17;10.93;;;;;;;;;;5041732;28;20232;-81
2023/01/16 12:06:44;;;;;;;20.70;15.13;;;;;;;;;;5067677;28;20205;-82
2023/01/16 12:09:39;;;;;;;16.40;12.67;;;;;;;;;;5054119;28;20658;-82
2023/01/16 12:15:28;;;;;;;25.87;18.03;;;;;;;;;;5055520;28;20366;-81
2023/01/16 12:18:11;;;;;;;16.63;12.63;;;;;;;;;;5060502;28;20594;-81
2023/01/16 12:20:46;;;;;;;21.13;17.27;;;;;;;;;;5073887;28;20250;-82
2023/01/16 12:23:38;;;;;;;18.47;15.80;;;;;;;;;;5064494;28;20267;-82
2023/01/16 12:26:19;;;;;;;13.80;12.03;;;;;;;;;;5054110;28;20275;-82
2023/01/16 12:28:57;;;;;;;15.20;12.07;;;;;;;;;;5053633;28;20216;-80
2023/01/16 12:31:36;;;;;;;14.50;11.40;;;;;;;;;;5063783;28;20590;-82
2023/01/16 12:34:26;;;;;;;17.63;14.07;;;;;;;;;;5055070;28;20202;-82
2023/01/16 12:37:05;;;;;;;14.73;12.80;;;;;;;;;;5053760;28;20232;-82
2023/01/16 12:39:40;;;;;;;16.87;12.53;;;;;;;;;;5053815;28;20202;-82
2023/01/16 12:45:08;;;;;;;14.70;12.33;;;;;;;;;;5053741;28;20307;-82
2023/01/16 12:48:07;;;;;;;19.17;14.80;;;;;;;;;;5042176;28;20236;-82
2023/01/16 12:50:48;;;;;;;17.30;14.43;;;;;;;;;;5053047;28;20233;-82
2023/01/16 12:53:33;;;;;;;16.37;13.43;;;;;;;;;;5054495;28;20696;-82
2023/01/16 12:56:10;;;;;;;19.87;14.80;;;;;;;;;;5074026;28;20663;-82
2023/01/16 12:58:39;;;;;;;23.93;18.80;;;;;;;;;;5067998;28;20230;-82
2023/01/16 13:01:13;;;;;;;20.77;17.67;;;;;;;;;;5053113;28;20213;-82
2023/01/16 13:03:45;;;;;;;16.23;13.50;;;;;;;;;;5040466;28;20236;-82
2023/01/16 13:06:15;;;;;;;18.83;14.67;;;;;;;;;;5053442;28;20629;-82
2023/01/16 13:08:49;;;;;;;20.73;13.60;;;;;;;;;;5061723;28;20263;-82
2023/01/16 13:14:07;;;;;;;14.63;11.57;;;;;;;;;;5053058;28;20750;-82
2023/01/16 13:16:39;;;;;;;16.40;12.37;;;;;;;;;;5039773;28;20830;-83
2023/01/16 13:19:12;;;;;;;25.47;17.53;;;;;;;;;;5066593;28;20286;-82
2023/01/16 13:21:58;;;;;;;32.53;24.27;;;;;;;;;;5061732;28;20205;-82
2023/01/16 13:24:29;;;;;;;22.30;17.47;;;;;;;;;;5068107;28;20230;-82
2023/01/16 13:27:00;;;;;;;27.00;19.20;;;;;;;;;;5052835;28;20209;-82
2023/01/16 13:29:32;;;;;;;15.50;12.47;;;;;;;;;;5058818;28;20592;-82
2023/01/16 13:32:10;;;;;;;14.77;13.00;;;;;;;;;;5058991;28;20206;-83
2023/01/16 13:34:40;;;;;;;35.17;25.10;;;;;;;;;;5064355;28;20243;-82
2023/01/16 13:37:37;;;;;;;32.93;22.27;;;;;;;;;;5054836;28;20206;-82
2023/01/16 13:40:23;;;;;;;27.60;19.40;;;;;;;;;;5059503;28;20255;-82
2023/01/16 13:42:53;;;;;;;31.70;23.47;;;;;;;;;;5041852;28;20218;-82
2023/01/16 13:45:48;;;;;;;38.50;25.80;;;;;;;;;;5065785;28;20225;-82
2023/01/16 13:48:18;;;;;;;18.07;14.70;;;;;;;;;;5053038;28;20688;-82
2023/01/16 13:50:58;;;;;;;13.30;11.30;;;;;;;;;;5064531;28;20289;-82
2023/01/16 13:53:26;;;;;;;11.80;9.63;;;;;;;;;;5055623;28;20209;-82
2023/01/16 13:56:04;;;;;;;14.00;11.50;;;;;;;;;;5061669;28;20206;-82
2023/01/16 13:58:31;;;;;;;11.63;10.40;;;;;;;;;;5052527;28;20265;-83
2023/01/16 14:01:00;;;;;;;11.30;9.03;;;;;;;;;;5064581;28;20205;-82
2023/01/16 14:03:30;;;;;;;11.80;9.00;;;;;;;;;;5065350;28;20241;-82
2023/01/16 14:06:18;;;;;;;10.07;9.03;;;;;;;;;;5065062;28;20200;-82
2023/01/16 14:09:07;;;;;;;10.77;8.30;;;;;;;;;;5051939;28;20581;-82
2023/01/16 14:11:41;;;;;;;9.90;7.63;;;;;;;;;;5052103;28;20209;-82
2023/01/16 14:17:18;;;;;;;12.93;10.00;;;;;;;;;;5060436;28;20247;-83
2023/01/16 14:19:55;;;;;;;12.97;9.67;;;;;;;;;;5071895;28;20209;-82
2023/01/16 14:25:18;;;;;;;29.90;24.77;;;;;;;;;;5051930;28;20688;-82
2023/01/16 14:27:50;;;;;;;32.03;23.60;;;;;;;;;;5051978;28;20205;-82
2023/01/16 14:30:19;;;;;;;24.90;20.03;;;;;;;;;;5065485;28;20212;-82
2023/01/16 14:32:47;;;;;;;20.03;16.60;;;;;;;;;;5071834;28;20209;-82
2023/01/16 14:35:18;;;;;;;22.93;18.07;;;;;;;;;;5058226;28;20205;-83
2023/01/16 14:37:55;;;;;;;20.33;16.87;;;;;;;;;;5071901;28;20201;-82
2023/01/16 14:55:11;;;;;;;26.83;20.93;;;;;;;;;;5071286;28;20687;-82
2023/01/16 14:55:50;;;;;;;28.60;19.57;;;;;;;;;;5043978;28;20212;-82
2023/01/16 14:58:25;;;;;;;41.47;28.03;;;;;;;;;;5054760;28;20303;-82
2023/01/16 15:00:52;;;;;;;21.33;16.90;;;;;;;;;;5063104;28;20200;-82
2023/01/16 15:03:23;;;;;;;16.10;13.77;;;;;;;;;;5066260;28;20312;-82
2023/01/16 15:05:51;;;;;;;13.83;11.47;;;;;;;;;;5051357;28;20878;-82
2023/01/16 15:08:24;;;;;;;15.50;13.37;;;;;;;;;;5064151;28;20699;-82
2023/01/16 15:10:52;;;;;;;48.73;35.70;;;;;;;;;;5064674;28;20236;-82
2023/01/16 15:13:25;;;;;;;40.97;31.93;;;;;;;;;;5038017;28;20213;-82
2023/01/16 15:15:54;;;;;;;35.70;26.20;;;;;;;;;;5054902;28;20210;-82
2023/01/16 15:24:04;;;;;;;31.00;23.13;;;;;;;;;;5072433;28;20224;-82
2023/01/16 15:26:41;;;;;;;28.97;23.87;;;;;;;;;;5055337;28;20204;-82
2023/01/16 15:29:28;;;;;;;33.20;26.97;;;;;;;;;;5058692;28;20213;-82
2023/01/16 15:31:58;;;;;;;36.63;29.70;;;;;;;;;;5061892;28;20193;-81
2023/01/16 15:34:26;;;;;;;38.50;30.03;;;;;;;;;;5061774;28;20627;-82
2023/01/16 15:36:56;;;;;;;29.77;21.93;;;;;;;;;;5060826;28;20209;-82
2023/01/16 15:39:28;;;;;;;25.60;19.97;;;;;;;;;;5055117;28;20202;-82
2023/01/16 15:48:16;;;;;;;49.50;35.03;;;;;;;;;;5012097;28;20222;-82
2023/01/16 15:50:56;;;;;;;92.33;55.83;;;;;;;;;;5030867;28;20194;-81
2023/01/16 15:53:25;;;;;;;64.40;47.73;;;;;;;;;;5060997;28;20286;-81
2023/01/16 15:56:02;;;;;;;53.97;40.03;;;;;;;;;;5063936;28;20216;-81
2023/01/16 15:58:29;;;;;;;39.67;32.93;;;;;;;;;;5054432;28;20233;-82
2023/01/16 16:00:57;;;;;;;25.43;21.40;;;;;;;;;;5065238;28;20212;-82
2023/01/16 16:03:28;;;;;;;28.70;25.70;;;;;;;;;;5073620;28;20293;-82
2023/01/16 16:05:56;;;;;;;15.73;12.37;;;;;;;;;;5061293;28;20738;-82
2023/01/16 16:08:25;;;;;;;10.03;8.93;;;;;;;;;;5054166;28;20214;-82
2023/01/16 16:13:39;;;;;;;18.73;14.57;;;;;;;;;;5053301;28;20212;-82
2023/01/16 16:19:01;;;;;;;16.63;12.47;;;;;;;;;;5053298;28;20213;-82
2023/01/16 16:21:36;;;;;;;25.03;18.90;;;;;;;;;;5041586;28;20267;-82
2023/01/16 16:24:05;;;;;;;18.43;14.30;;;;;;;;;;5059003;28;20243;-82